Silverthorne, CO (80497)

1:53 AM MST on December 04, 2016 (GMT -0700)
Ski Area | | Change Station

Elev 10883 ft 39.68 °N, 105.90 °W | Updated 46 seconds ago

Overcast
Overcast
6.9 °F
Feels Like -9 °F
N
12.0
Wind Variable Wind from WNW
Gusts 16.0 mph

Today
High -- | Low -- °F
--% Chance of Precip.
Yesterday
High -- | Low -- °F
Precip. -- in
Pressure 29.94 in
Visibility -9999.0 miles
Clouds Overcast 200 ft
Windchill -9 °F
Dew Point 1 °F
Humidity 77%
Rainfall 0.00 in
Snow Depth Not available.
7:09 AM 4:39 PM
Waxing Crescent, 21% visible
METAR K0CO 040839Z AUTO 33026G34KT OVC002 M18/M25 A2994 RMK AO2 PWINO
Pressure 29.94 in
Visibility -9999.0 miles
Clouds Overcast 200 ft
Windchill -9 °F
Dew Point 1 °F
Humidity 77%
Rainfall 0.00 in
Snow Depth Not available.
7:09 AM 4:39 PM
Waxing Crescent, 21% visible
METAR K0CO 040839Z AUTO 33026G34KT OVC002 M18/M25 A2994 RMK AO2 PWINO

10-Day Weather Forecast

Almanac

Astronomy

Dec. 04, 2016 Rise Set
Actual Time
Civil Twilight
Nautical Twilight
Astronomical Twilight
Moon
Length of Visible Light
Length of Day
Tomorrow will be .
, % of the Moon is Illuminated

Today's Extremes

State Highs State Lows

Community

WunderPhotos

Upload Photos

1,955,587 photos uploaded!

WunderBlog® & News

Nearby

Air Quality

  Air Quality AQ Index Pollutant
Not available.

Snow Depth

Station Depth Elevation

Earthquake Activity

City Distance Mag. Time & Date
Minimum magnitude displayed is 2.5.

Coastal Water Temperatures

Place Temperature

Stations

Nearby Weather Stations

Station Location Temp. Windchill Dew Point Humidity Wind Precip. Elev Updated Type
                   

Watches & Warnings

There are currently no watches in effect.